createdAt,value
2022-08-07T00:02:46.877Z,82.67
2022-08-07T00:05:54.117Z,81.56
2022-08-07T00:09:00.109Z,81.36
2022-08-07T00:12:22.321Z,81.21
2022-08-07T00:15:38.455Z,81.76
2022-08-07T00:18:53.055Z,81.84
2022-08-07T00:22:02.365Z,80.66
2022-08-07T00:25:15.731Z,80.50
2022-08-07T00:28:23.032Z,81.16
2022-08-07T00:31:41.512Z,80.70
2022-08-07T00:34:50.708Z,81.25
2022-08-07T00:37:56.626Z,81.57
2022-08-07T00:41:04.299Z,80.31
2022-08-07T00:44:15.502Z,80.81
2022-08-07T00:48:08.187Z,81.27
2022-08-07T00:50:51.288Z,82.79
2022-08-07T00:53:57.728Z,81.02
2022-08-07T00:57:03.386Z,81.18
2022-08-07T01:00:10.126Z,81.89
2022-08-07T01:03:17.386Z,82.90
2022-08-07T01:06:24.270Z,84.62
2022-08-07T01:10:04.756Z,85.43
2022-08-07T01:12:55.994Z,88.08
2022-08-07T01:16:08.416Z,90.53
2022-08-07T01:19:18.870Z,87.69
2022-08-07T01:22:29.420Z,87.21
2022-08-07T01:25:54.328Z,87.63
2022-08-07T01:29:03.315Z,91.75
2022-08-07T01:32:12.559Z,88.71
2022-08-07T01:35:24.395Z,87.94
2022-08-07T01:38:32.697Z,89.32
2022-08-07T01:42:01.676Z,89.28
2022-08-07T01:45:18.375Z,92.17
2022-08-07T01:48:35.005Z,93.23
2022-08-07T01:52:03.435Z,92.37
2022-08-07T01:55:22.348Z,94.56
2022-08-07T01:58:37.551Z,93.68
2022-08-07T02:02:02.741Z,93.55
2022-08-07T02:05:42.811Z,92.61
2022-08-07T02:08:54.319Z,92.38
2022-08-07T02:12:17.958Z,92.04
2022-08-07T02:15:43.895Z,92.96
2022-08-07T02:18:51.178Z,92.10
2022-08-07T02:22:00.008Z,94.96
2022-08-07T02:25:13.802Z,96.56
2022-08-07T02:28:29.943Z,99.27
2022-08-07T02:31:41.186Z,99.64
2022-08-07T02:34:51.272Z,99.44
2022-08-07T02:38:04.324Z,100.00
2022-08-07T02:41:13.944Z,98.80
2022-08-07T02:44:34.732Z,99.79
2022-08-07T02:47:44.989Z,100.00
2022-08-07T02:50:57.738Z,100.00
2022-08-07T02:54:09.981Z,100.00
2022-08-07T02:57:22.227Z,100.00
2022-08-07T03:00:30.589Z,100.00
2022-08-07T03:03:49.093Z,100.00
2022-08-07T03:07:10.407Z,100.00
2022-08-07T03:10:19.950Z,100.00
2022-08-07T03:13:30.374Z,100.00
2022-08-07T03:16:47.700Z,100.00
2022-08-07T03:19:55.549Z,100.00
2022-08-07T03:23:06.423Z,100.00
2022-08-07T03:26:30.282Z,100.00
2022-08-07T03:29:46.139Z,100.00
2022-08-07T03:33:00.888Z,100.00
2022-08-07T03:36:15.081Z,100.00
2022-08-07T03:39:59.421Z,100.00
2022-08-07T03:42:52.457Z,100.00
2022-08-07T03:46:00.651Z,100.00
2022-08-07T03:49:10.183Z,100.00
2022-08-07T03:52:27.468Z,100.00
2022-08-07T03:55:58.328Z,100.00
2022-08-07T03:59:09.858Z,100.00
2022-08-07T04:02:20.957Z,100.00
2022-08-07T04:05:39.198Z,100.00
2022-08-07T04:08:52.338Z,100.00
2022-08-07T04:12:23.691Z,100.00
2022-08-07T04:15:27.668Z,100.00
2022-08-07T04:18:59.146Z,99.80
2022-08-07T04:22:14.488Z,99.87
2022-08-07T04:25:24.242Z,99.92
2022-08-07T04:28:36.796Z,98.23
2022-08-07T04:32:03.374Z,98.05
2022-08-07T04:35:11.377Z,100.00
2022-08-07T04:38:19.504Z,100.00
2022-08-07T04:41:27.282Z,100.00
2022-08-07T04:44:35.730Z,100.00
2022-08-07T04:48:04.679Z,100.00
2022-08-07T04:51:35.745Z,100.00
2022-08-07T04:55:02.237Z,100.00
2022-08-07T05:02:20.705Z,100.00
2022-08-07T05:05:52.888Z,100.00
2022-08-07T05:09:43.001Z,100.00
2022-08-07T05:13:09.880Z,100.00
2022-08-07T05:16:31.746Z,100.00
2022-08-07T05:19:48.851Z,100.00
2022-08-07T05:22:59.920Z,100.00
2022-08-07T05:26:18.725Z,100.00
2022-08-07T05:29:52.234Z,100.00
2022-08-07T05:33:04.114Z,100.00
2022-08-07T05:36:12.044Z,100.00
2022-08-07T05:40:05.360Z,100.00
2022-08-07T05:42:56.013Z,100.00
2022-08-07T05:46:04.885Z,100.00
2022-08-07T05:49:13.117Z,100.00
2022-08-07T05:52:32.496Z,100.00
2022-08-07T05:56:03.851Z,100.00
2022-08-07T05:59:15.533Z,100.00
2022-08-07T06:02:29.197Z,100.00
2022-08-07T06:05:37.227Z,100.00
2022-08-07T06:08:48.120Z,100.00
2022-08-07T06:11:58.908Z,100.00
2022-08-07T06:15:07.505Z,100.00
2022-08-07T06:18:14.355Z,100.00
2022-08-07T06:23:02.416Z,100.00
2022-08-07T06:26:22.224Z,100.00
2022-08-07T06:29:38.870Z,100.00
2022-08-07T06:32:46.735Z,100.00
2022-08-07T06:36:12.428Z,100.00
2022-08-07T06:40:15.611Z,100.00
2022-08-07T06:42:53.114Z,100.00
2022-08-07T06:46:20.412Z,100.00
2022-08-07T06:49:51.117Z,100.00
2022-08-07T06:53:04.079Z,100.00
2022-08-07T06:56:15.971Z,100.00
2022-08-07T07:00:13.580Z,100.00
2022-08-07T07:03:00.989Z,100.00
2022-08-07T07:06:11.211Z,100.00
2022-08-07T07:09:26.078Z,100.00
2022-08-07T07:12:56.189Z,100.00
2022-08-07T07:16:06.888Z,100.00
2022-08-07T07:19:56.579Z,100.00
2022-08-07T07:24:06.273Z,100.00
2022-08-07T07:26:32.927Z,100.00
2022-08-07T07:29:57.172Z,100.00
2022-08-07T07:33:14.422Z,100.00
2022-08-07T07:36:24.828Z,100.00
2022-08-07T07:39:45.772Z,100.00
2022-08-07T07:43:15.107Z,100.00
2022-08-07T07:46:36.868Z,100.00
2022-08-07T07:50:33.756Z,100.00
2022-08-07T07:53:25.763Z,100.00
2022-08-07T07:56:33.865Z,100.00
2022-08-07T07:59:52.030Z,100.00
2022-08-07T08:03:16.529Z,100.00
2022-08-07T08:06:26.362Z,100.00
2022-08-07T08:13:02.850Z,100.00
2022-08-07T08:16:12.756Z,100.00
2022-08-07T08:20:22.332Z,100.00
2022-08-07T08:23:14.701Z,100.00
2022-08-07T08:26:39.608Z,100.00
2022-08-07T08:29:54.607Z,100.00
2022-08-07T08:33:05.859Z,100.00
2022-08-07T08:36:25.645Z,100.00
2022-08-07T08:39:39.339Z,100.00
2022-08-07T08:43:16.755Z,100.00
2022-08-07T08:46:34.668Z,100.00
2022-08-07T08:50:34.723Z,100.00
2022-08-07T08:53:58.308Z,100.00
2022-08-07T08:57:14.545Z,100.00
2022-08-07T09:00:24.519Z,100.00
2022-08-07T09:03:52.702Z,100.00
2022-08-07T09:07:33.582Z,100.00
2022-08-07T09:11:14.104Z,100.00
2022-08-07T09:16:22.942Z,100.00
2022-08-07T09:18:36.657Z,100.00
2022-08-07T09:22:09.965Z,100.00
2022-08-07T09:25:21.792Z,100.00
2022-08-07T09:30:01.071Z,100.00
2022-08-07T09:32:51.213Z,100.00
2022-08-07T09:36:20.995Z,100.00
2022-08-07T09:39:53.769Z,100.00
2022-08-07T09:44:03.611Z,100.00
2022-08-07T09:47:57.800Z,100.00
2022-08-07T09:50:59.522Z,100.00
2022-08-07T09:54:11.612Z,100.00
2022-08-07T09:57:54.659Z,100.00
2022-08-07T10:01:52.052Z,100.00
2022-08-07T10:05:59.419Z,100.00
2022-08-07T10:09:23.629Z,100.00
2022-08-07T10:12:53.543Z,100.00
2022-08-07T10:16:21.182Z,100.00
2022-08-07T10:20:00.490Z,100.00
2022-08-07T10:24:05.251Z,100.00
2022-08-07T10:27:45.779Z,100.00
2022-08-07T10:31:31.476Z,100.00
2022-08-07T10:34:58.384Z,100.00
2022-08-07T10:38:42.061Z,100.00
2022-08-07T10:42:21.062Z,100.00
2022-08-07T10:45:57.764Z,100.00
2022-08-07T10:49:49.520Z,100.00
2022-08-07T10:53:21.624Z,100.00
2022-08-07T10:56:47.026Z,100.00
2022-08-07T11:00:36.381Z,100.00
2022-08-07T11:03:54.974Z,97.96
2022-08-07T11:08:00.285Z,94.26
2022-08-07T11:11:24.621Z,92.98
2022-08-07T11:15:00.277Z,93.94
2022-08-07T11:18:37.289Z,90.80
2022-08-07T11:21:54.916Z,92.48
2022-08-07T11:25:31.234Z,93.17
2022-08-07T11:28:53.426Z,93.93
2022-08-07T11:32:31.063Z,91.52
2022-08-07T11:36:30.627Z,92.83
2022-08-07T11:40:00.102Z,89.81
2022-08-07T11:43:18.856Z,90.33
2022-08-07T11:46:45.033Z,90.91
2022-08-07T11:50:31.790Z,92.18
2022-08-07T11:54:01.708Z,90.18
2022-08-07T11:57:19.664Z,89.62
2022-08-07T12:01:05.278Z,88.27
2022-08-07T12:04:35.887Z,88.82
2022-08-07T12:07:53.696Z,88.06
2022-08-07T12:11:32.585Z,88.29
2022-08-07T12:14:55.625Z,90.24
2022-08-07T12:18:16.144Z,84.38
2022-08-07T12:22:36.171Z,84.67
2022-08-07T12:26:05.351Z,84.92
2022-08-07T12:29:51.773Z,85.75
2022-08-07T12:33:14.595Z,82.52
2022-08-07T12:36:32.902Z,82.46
2022-08-07T12:39:51.103Z,83.86
2022-08-07T12:43:01.131Z,83.40
2022-08-07T12:46:26.282Z,81.71
2022-08-07T12:49:53.033Z,79.02
2022-08-07T12:53:18.604Z,77.94
2022-08-07T12:56:36.885Z,80.35
2022-08-07T12:59:55.462Z,78.07
2022-08-07T13:03:59.315Z,77.94
2022-08-07T13:08:12.712Z,75.91
2022-08-07T13:11:03.064Z,74.61
2022-08-07T13:14:29.146Z,74.09
2022-08-07T13:17:46.849Z,76.38
2022-08-07T13:20:59.870Z,76.44
2022-08-07T13:24:31.044Z,74.94
2022-08-07T13:28:10.597Z,74.69
2022-08-07T13:31:54.920Z,74.17
2022-08-07T13:35:08.413Z,74.96
2022-08-07T13:38:20.454Z,75.03
2022-08-07T13:41:47.555Z,73.56
2022-08-07T13:45:20.592Z,73.33
2022-08-07T13:48:27.834Z,72.70
2022-08-07T13:52:19.028Z,72.76
2022-08-07T13:55:26.502Z,72.97
2022-08-07T13:58:58.496Z,71.61
2022-08-07T14:02:10.386Z,71.09
2022-08-07T14:05:22.479Z,70.02
2022-08-07T14:08:29.905Z,70.48
2022-08-07T14:12:01.133Z,71.82
2022-08-07T14:15:32.015Z,71.25
2022-08-07T14:18:49.962Z,71.78
2022-08-07T14:22:10.750Z,71.56
2022-08-07T14:25:25.033Z,70.57
2022-08-07T14:28:57.520Z,71.63
2022-08-07T14:32:09.829Z,71.03
2022-08-07T14:35:44.956Z,70.91
2022-08-07T14:38:53.164Z,71.05
2022-08-07T14:42:19.758Z,70.81
2022-08-07T14:45:46.037Z,71.01
2022-08-07T14:48:58.048Z,74.56
2022-08-07T14:52:10.492Z,70.83
2022-08-07T14:55:17.642Z,69.60
2022-08-07T14:58:27.965Z,69.50
2022-08-07T15:01:50.970Z,70.62
2022-08-07T15:04:57.923Z,68.97
2022-08-07T15:08:12.616Z,70.23
2022-08-07T15:14:58.177Z,67.61
2022-08-07T15:18:14.250Z,68.18
2022-08-07T15:21:44.948Z,69.32
2022-08-07T15:28:45.018Z,69.16
2022-08-07T15:32:02.815Z,70.34
2022-08-07T15:36:00.689Z,70.88
2022-08-07T15:38:51.345Z,70.70
2022-08-07T15:42:43.316Z,69.52
2022-08-07T15:45:55.923Z,69.96
2022-08-07T15:52:36.991Z,70.38
2022-08-07T15:56:02.355Z,70.73
2022-08-07T15:59:17.403Z,69.12
2022-08-07T16:02:27.008Z,70.60
2022-08-07T16:05:36.124Z,69.16
2022-08-07T16:08:45.587Z,69.38
2022-08-07T16:12:05.587Z,67.69
2022-08-07T16:15:57.738Z,68.39
2022-08-07T16:19:43.176Z,68.55
2022-08-07T16:23:53.496Z,69.95
2022-08-07T16:27:17.967Z,69.28
2022-08-07T16:30:30.903Z,71.30
2022-08-07T16:34:02.896Z,71.80
2022-08-07T16:38:06.092Z,70.94
2022-08-07T16:41:53.948Z,70.61
2022-08-07T16:46:34.669Z,73.38
2022-08-07T16:50:27.052Z,71.75
2022-08-07T16:53:09.858Z,72.92
2022-08-07T16:56:49.782Z,73.59
2022-08-07T17:00:03.234Z,72.60
2022-08-07T17:03:17.081Z,72.57
2022-08-07T17:07:03.473Z,74.98
2022-08-07T17:10:30.393Z,74.87
2022-08-07T17:14:18.013Z,76.81
2022-08-07T17:17:45.973Z,75.32
2022-08-07T17:20:54.791Z,76.77
2022-08-07T17:24:32.036Z,78.95
2022-08-07T17:28:20.168Z,78.52
2022-08-07T17:31:44.067Z,77.55
2022-08-07T17:35:32.934Z,79.04
2022-08-07T17:38:35.177Z,81.02
2022-08-07T17:42:01.979Z,79.41
2022-08-07T17:45:18.033Z,80.41
2022-08-07T17:48:34.494Z,80.23
2022-08-07T17:52:19.446Z,81.03
2022-08-07T17:56:01.271Z,82.38
2022-08-07T17:59:21.559Z,82.86
2022-08-07T18:02:56.379Z,84.25
2022-08-07T18:06:10.365Z,86.08
2022-08-07T18:09:48.374Z,85.47
2022-08-07T18:13:09.799Z,86.37
2022-08-07T18:16:33.181Z,86.55
2022-08-07T18:21:08.229Z,88.34
2022-08-07T18:23:42.301Z,90.22
2022-08-07T18:27:25.246Z,92.47
2022-08-07T18:31:12.252Z,93.20
2022-08-07T18:35:01.389Z,94.91
2022-08-07T18:38:56.297Z,97.73
2022-08-07T18:41:53.064Z,98.61
2022-08-07T18:45:40.218Z,99.92
2022-08-07T18:50:35.236Z,98.44
2022-08-07T18:52:53.198Z,98.26
2022-08-07T18:56:35.499Z,100.00
2022-08-07T19:00:34.199Z,100.00
2022-08-07T19:03:40.578Z,99.67
2022-08-07T19:06:56.807Z,100.00
2022-08-07T19:10:10.953Z,98.42
2022-08-07T19:13:43.894Z,97.91
2022-08-07T19:17:05.760Z,99.18
2022-08-07T19:20:30.246Z,97.11
2022-08-07T19:23:59.111Z,96.21
2022-08-07T19:28:30.086Z,96.85
2022-08-07T19:31:05.751Z,96.71
2022-08-07T19:34:06.117Z,97.22
2022-08-07T19:37:17.587Z,96.73
2022-08-07T19:40:31.570Z,97.47
2022-08-07T19:43:51.912Z,97.20
2022-08-07T19:47:10.885Z,97.29
2022-08-07T19:50:42.999Z,98.52
2022-08-07T19:54:44.409Z,97.93
2022-08-07T19:58:00.143Z,98.03
2022-08-07T20:00:55.480Z,98.29
2022-08-07T20:04:01.894Z,98.02
2022-08-07T20:07:10.641Z,97.97
2022-08-07T20:10:38.221Z,97.92
2022-08-07T20:13:57.489Z,98.78
2022-08-07T20:17:06.712Z,98.02
2022-08-07T20:20:15.417Z,97.75
2022-08-07T20:23:41.768Z,97.94
2022-08-07T20:26:52.368Z,98.45
2022-08-07T20:30:05.960Z,100.00
2022-08-07T20:33:24.373Z,99.72
2022-08-07T20:36:51.746Z,100.00
2022-08-07T20:40:03.805Z,100.00
2022-08-07T20:43:19.344Z,100.00
2022-08-07T20:46:34.583Z,100.00
2022-08-07T20:49:57.966Z,100.00
2022-08-07T20:53:16.112Z,100.00
2022-08-07T20:56:41.761Z,100.00
2022-08-07T21:00:06.529Z,100.00
2022-08-07T21:03:25.525Z,100.00
2022-08-07T21:06:34.053Z,100.00
2022-08-07T21:09:53.104Z,100.00
2022-08-07T21:13:12.075Z,100.00
2022-08-07T21:16:20.656Z,100.00
2022-08-07T21:19:51.647Z,100.00
2022-08-07T21:23:07.611Z,100.00
2022-08-07T21:26:42.847Z,100.00
2022-08-07T21:29:54.463Z,100.00
2022-08-07T21:33:29.359Z,100.00
2022-08-07T21:37:04.703Z,100.00
2022-08-07T21:40:35.667Z,100.00
2022-08-07T21:43:56.726Z,100.00
2022-08-07T21:47:12.443Z,100.00
2022-08-07T21:50:28.200Z,100.00
2022-08-07T21:53:46.500Z,100.00
2022-08-07T21:57:01.549Z,100.00
2022-08-07T22:00:23.110Z,100.00
2022-08-07T22:04:02.507Z,100.00
2022-08-07T22:07:16.462Z,100.00
2022-08-07T22:10:26.167Z,100.00
2022-08-07T22:13:51.865Z,100.00
2022-08-07T22:17:05.933Z,100.00
2022-08-07T22:20:34.291Z,100.00
2022-08-07T22:23:58.114Z,100.00
2022-08-07T22:27:21.146Z,100.00
2022-08-07T22:31:09.874Z,100.00
2022-08-07T22:34:31.701Z,100.00
2022-08-07T22:38:01.947Z,100.00
2022-08-07T22:41:29.162Z,100.00
2022-08-07T22:44:59.094Z,100.00
2022-08-07T22:48:31.361Z,100.00
2022-08-07T22:51:54.165Z,100.00
2022-08-07T22:55:29.783Z,100.00
2022-08-07T22:59:11.286Z,100.00
2022-08-07T23:02:35.224Z,100.00
2022-08-07T23:06:15.366Z,100.00
2022-08-07T23:10:03.847Z,100.00
2022-08-07T23:14:08.798Z,100.00
2022-08-07T23:17:35.931Z,100.00
2022-08-07T23:21:04.853Z,100.00
2022-08-07T23:24:35.118Z,100.00
2022-08-07T23:28:21.051Z,100.00
2022-08-07T23:32:49.492Z,100.00
2022-08-07T23:34:56.295Z,100.00
2022-08-07T23:38:19.267Z,100.00
2022-08-07T23:42:04.441Z,100.00
2022-08-07T23:46:01.357Z,100.00
2022-08-07T23:49:15.401Z,100.00
2022-08-07T23:53:16.846Z,100.00
2022-08-07T23:56:54.093Z,100.00
